Terminal Aerodrome Forecast
Issued by NWS

Home | Current Version | Previous Version | Text Only | Print | Product List | Glossary Off
Versions: 1 2 3 4 5 6 7 8 9 10 11 12 13 14 15 16 17 18 19 20 21 22 23

000
FTUS43 KTOP 221300 AAA
TAFMHK
TAF AMD
KMHK 221311Z 2213/2312 13005KT P6SM SKC
     FM221600 18015G22KT P6SM SCT200
     FM230000 19007KT P6SM -SHRA BKN035
     FM230800 21005KT 6SM BR BKN035=

USA.gov is the U.S. government's official web portal to all federal, state and local government web resources and services.